createdAt,value
2019-05-25T00:02:14.775Z,16.07
2019-05-25T00:04:44.417Z,15.97
2019-05-25T00:07:14.035Z,16.06
2019-05-25T00:09:43.616Z,15.91
2019-05-25T00:12:13.260Z,16.01
2019-05-25T00:14:43.261Z,15.93
2019-05-25T00:17:12.812Z,16.10
2019-05-25T00:19:42.302Z,16.07
2019-05-25T00:22:11.885Z,16.09
2019-05-25T00:24:41.500Z,16.13
2019-05-25T00:27:11.005Z,16.27
2019-05-25T00:29:40.530Z,16.40
2019-05-25T00:32:10.164Z,16.45
2019-05-25T00:34:39.744Z,16.54
2019-05-25T00:37:09.526Z,16.55
2019-05-25T00:39:39.128Z,16.49
2019-05-25T00:42:08.635Z,16.58
2019-05-25T00:44:38.241Z,16.48
2019-05-25T00:47:07.835Z,16.36
2019-05-25T00:49:37.460Z,16.44
2019-05-25T00:52:07.048Z,16.41
2019-05-25T00:54:37.839Z,16.46
2019-05-25T00:57:07.395Z,16.24
2019-05-25T00:59:37.189Z,16.08
2019-05-25T01:02:11.179Z,16.15
2019-05-25T01:04:40.785Z,16.26
2019-05-25T01:07:10.418Z,16.17
2019-05-25T01:09:39.939Z,16.01
2019-05-25T01:12:09.497Z,16.09
2019-05-25T01:14:41.943Z,16.18
2019-05-25T01:17:11.525Z,16.31
2019-05-25T01:19:41.104Z,16.27
2019-05-25T01:22:10.627Z,16.25
2019-05-25T01:24:44.275Z,16.30
2019-05-25T01:27:11.379Z,16.38
2019-05-25T01:29:40.904Z,16.03
2019-05-25T01:32:10.482Z,16.15
2019-05-25T01:34:42.935Z,16.20
2019-05-25T01:37:12.448Z,16.17
2019-05-25T01:39:42.151Z,16.24
2019-05-25T01:42:11.707Z,16.23
2019-05-25T01:44:41.364Z,16.01
2019-05-25T01:47:10.965Z,15.80
2019-05-25T01:49:43.385Z,15.99
2019-05-25T01:52:15.655Z,15.70
2019-05-25T01:54:58.821Z,15.76
2019-05-25T01:57:16.971Z,15.88
2019-05-25T01:59:46.474Z,16.06
2019-05-25T02:02:16.089Z,16.02
2019-05-25T02:04:45.706Z,15.97
2019-05-25T02:07:15.240Z,16.07
2019-05-25T02:09:44.758Z,15.92
2019-05-25T02:12:14.305Z,16.03
2019-05-25T02:14:43.910Z,15.99
2019-05-25T02:17:13.418Z,16.15
2019-05-25T02:19:43.234Z,16.02
2019-05-25T02:22:12.775Z,15.96
2019-05-25T02:24:42.298Z,15.90
2019-05-25T02:27:11.940Z,16.04
2019-05-25T02:29:41.526Z,15.92
2019-05-25T02:32:12.620Z,15.92
2019-05-25T02:34:42.446Z,15.76
2019-05-25T02:37:12.054Z,15.77
2019-05-25T02:39:41.654Z,15.91
2019-05-25T02:42:12.506Z,15.93
2019-05-25T02:44:42.028Z,16.00
2019-05-25T02:47:11.688Z,15.85
2019-05-25T02:49:41.235Z,15.75
2019-05-25T02:52:10.780Z,15.77
2019-05-25T02:54:40.350Z,15.58
2019-05-25T02:57:09.955Z,15.61
2019-05-25T02:59:39.688Z,15.58
2019-05-25T03:02:09.250Z,15.50
2019-05-25T03:04:38.932Z,15.50
2019-05-25T03:07:08.502Z,15.52
2019-05-25T03:09:39.277Z,15.75
2019-05-25T03:12:09.367Z,15.77
2019-05-25T03:14:38.939Z,15.71
2019-05-25T03:17:08.661Z,15.59
2019-05-25T03:19:38.353Z,15.50
2019-05-25T03:22:07.951Z,15.64
2019-05-25T03:24:37.564Z,15.52
2019-05-25T03:27:07.236Z,15.62
2019-05-25T03:29:36.827Z,15.60
2019-05-25T03:32:06.419Z,15.56
2019-05-25T03:34:35.960Z,15.43
2019-05-25T03:37:05.462Z,15.12
2019-05-25T03:39:35.031Z,15.11
2019-05-25T03:42:04.766Z,15.14
2019-05-25T03:44:34.265Z,15.14
2019-05-25T03:47:03.915Z,15.33
2019-05-25T03:49:34.545Z,15.50
2019-05-25T03:52:04.142Z,15.24
2019-05-25T03:54:33.785Z,15.43
2019-05-25T03:57:03.877Z,15.23
2019-05-25T03:59:33.563Z,15.06
2019-05-25T04:02:03.277Z,15.23
2019-05-25T04:04:32.881Z,15.31
2019-05-25T04:07:02.454Z,15.43
2019-05-25T04:09:32.103Z,15.30
2019-05-25T04:12:02.031Z,15.22
2019-05-25T04:14:31.558Z,15.22
2019-05-25T04:17:01.080Z,15.29
2019-05-25T04:19:30.625Z,15.33
2019-05-25T04:22:00.197Z,15.45
2019-05-25T04:24:29.698Z,15.57
2019-05-25T04:26:59.240Z,15.52
2019-05-25T04:29:28.772Z,15.76
2019-05-25T04:31:58.276Z,15.76
2019-05-25T04:34:29.089Z,15.72
2019-05-25T04:36:58.680Z,15.75
2019-05-25T04:39:28.200Z,15.64
2019-05-25T04:41:57.811Z,15.77
2019-05-25T04:44:27.411Z,15.63
2019-05-25T04:46:56.923Z,15.62
2019-05-25T04:49:26.648Z,15.61
2019-05-25T04:51:56.164Z,15.49
2019-05-25T04:54:25.666Z,15.41
2019-05-25T04:56:56.912Z,15.55
2019-05-25T04:59:27.283Z,15.50
2019-05-25T05:01:56.813Z,15.42
2019-05-25T05:04:26.798Z,15.57
2019-05-25T05:06:56.298Z,15.53
2019-05-25T05:09:25.827Z,15.71
2019-05-25T05:11:55.386Z,15.52
2019-05-25T05:14:24.966Z,15.26
2019-05-25T05:16:54.777Z,15.39
2019-05-25T05:19:27.807Z,15.50
2019-05-25T05:21:57.325Z,15.59
2019-05-25T05:24:26.924Z,15.40
2019-05-25T05:26:56.642Z,15.37
2019-05-25T05:29:26.286Z,15.56
2019-05-25T05:31:55.880Z,15.50
2019-05-25T05:34:25.530Z,15.51
2019-05-25T05:36:55.680Z,15.69
2019-05-25T05:39:27.734Z,15.70
2019-05-25T05:41:59.628Z,15.47
2019-05-25T05:44:32.017Z,15.48
2019-05-25T05:47:03.154Z,15.18
2019-05-25T05:49:34.173Z,15.27
2019-05-25T05:52:03.903Z,15.46
2019-05-25T05:54:34.221Z,15.66
2019-05-25T05:57:12.429Z,15.69
2019-05-25T05:59:35.356Z,15.67
2019-05-25T06:02:05.366Z,15.84
2019-05-25T06:04:35.565Z,15.63
2019-05-25T06:07:05.263Z,15.43
2019-05-25T06:09:35.011Z,15.56
2019-05-25T06:12:05.864Z,15.45
2019-05-25T06:14:35.420Z,15.39
2019-05-25T06:17:05.212Z,15.51
2019-05-25T06:19:34.930Z,15.49
2019-05-25T06:22:04.972Z,15.40
2019-05-25T06:24:34.880Z,15.21
2019-05-25T06:27:04.610Z,15.23
2019-05-25T06:29:34.205Z,15.47
2019-05-25T06:32:04.245Z,15.43
2019-05-25T06:34:34.019Z,15.27
2019-05-25T06:37:03.559Z,15.27
2019-05-25T06:39:33.135Z,15.42
2019-05-25T06:42:02.866Z,15.58
2019-05-25T06:44:32.444Z,15.83
2019-05-25T06:47:02.023Z,15.79
2019-05-25T06:49:31.901Z,15.85
2019-05-25T06:52:01.440Z,16.01
2019-05-25T06:54:31.038Z,15.93
2019-05-25T06:57:01.206Z,16.10
2019-05-25T06:59:30.787Z,16.23
2019-05-25T07:02:00.365Z,16.60
2019-05-25T07:04:29.923Z,16.57
2019-05-25T07:06:59.433Z,16.65
2019-05-25T07:09:29.021Z,16.77
2019-05-25T07:11:58.547Z,16.64
2019-05-25T07:14:28.190Z,16.74
2019-05-25T07:16:57.702Z,16.64
2019-05-25T07:19:28.369Z,16.78
2019-05-25T07:21:57.940Z,16.93
2019-05-25T07:24:27.456Z,17.20
2019-05-25T07:26:57.009Z,17.34
2019-05-25T07:29:26.518Z,17.16
2019-05-25T07:31:56.192Z,17.36
2019-05-25T07:34:26.001Z,17.31
2019-05-25T07:36:55.577Z,17.51
2019-05-25T07:39:25.201Z,17.67
2019-05-25T07:41:54.804Z,17.73
2019-05-25T07:44:24.509Z,17.82
2019-05-25T07:46:54.077Z,17.78
2019-05-25T07:49:23.742Z,17.63
2019-05-25T07:51:53.338Z,17.61
2019-05-25T07:54:23.172Z,17.61
2019-05-25T07:56:52.800Z,17.52
2019-05-25T07:59:22.403Z,17.55
2019-05-25T08:01:51.902Z,17.62
2019-05-25T08:04:21.524Z,17.49
2019-05-25T08:06:51.911Z,17.67
2019-05-25T08:09:21.561Z,17.48
2019-05-25T08:11:51.673Z,17.32
2019-05-25T08:14:21.236Z,17.54
2019-05-25T08:16:50.885Z,17.71
2019-05-25T08:19:20.541Z,17.56
2019-05-25T08:21:50.152Z,17.51
2019-05-25T08:24:19.753Z,17.60
2019-05-25T08:26:49.764Z,17.44
2019-05-25T08:29:19.503Z,17.57
2019-05-25T08:31:49.043Z,17.34
2019-05-25T08:34:18.728Z,17.74
2019-05-25T08:36:48.257Z,17.82
2019-05-25T08:39:17.833Z,17.50
2019-05-25T08:41:47.620Z,17.53
2019-05-25T08:44:36.609Z,17.47
2019-05-25T08:47:06.522Z,17.65
2019-05-25T08:49:36.050Z,17.59
2019-05-25T08:52:05.924Z,17.89
2019-05-25T08:54:35.535Z,18.52
2019-05-25T08:57:05.299Z,18.89
2019-05-25T08:59:34.880Z,19.22
2019-05-25T09:02:04.668Z,19.41
2019-05-25T09:04:34.711Z,19.38
2019-05-25T09:07:04.513Z,19.46
2019-05-25T09:09:34.533Z,18.94
2019-05-25T09:12:04.263Z,18.91
2019-05-25T09:14:33.875Z,18.75
2019-05-25T09:17:03.527Z,18.66
2019-05-25T09:19:33.326Z,18.18
2019-05-25T09:22:03.953Z,18.28
2019-05-25T09:24:33.832Z,18.19
2019-05-25T09:27:03.473Z,18.28
2019-05-25T09:29:33.158Z,18.29
2019-05-25T09:32:02.874Z,18.22
2019-05-25T09:34:32.417Z,18.30
2019-05-25T09:37:01.900Z,18.26
2019-05-25T09:39:31.943Z,18.30
2019-05-25T09:42:01.816Z,18.42
2019-05-25T09:44:31.362Z,18.62
2019-05-25T09:47:00.907Z,18.85
2019-05-25T09:49:30.484Z,19.14
2019-05-25T09:51:59.983Z,18.89
2019-05-25T09:54:29.755Z,18.93
2019-05-25T09:56:59.280Z,18.86
2019-05-25T09:59:28.773Z,19.05
2019-05-25T10:01:58.317Z,19.41
2019-05-25T10:04:27.876Z,19.52
2019-05-25T10:06:57.500Z,19.64
2019-05-25T10:09:46.490Z,19.61
2019-05-25T10:12:16.462Z,19.28
2019-05-25T10:14:46.222Z,19.09
2019-05-25T10:17:15.759Z,19.34
2019-05-25T10:19:45.569Z,19.56
2019-05-25T10:22:15.270Z,19.71
2019-05-25T10:24:44.887Z,19.79
2019-05-25T10:27:14.463Z,19.93
2019-05-25T10:29:44.067Z,20.56
2019-05-25T10:32:14.025Z,20.55
2019-05-25T10:34:43.679Z,20.78
2019-05-25T10:37:13.220Z,20.45
2019-05-25T10:39:42.856Z,20.08
2019-05-25T10:42:12.443Z,19.65
2019-05-25T10:44:41.963Z,19.82
2019-05-25T10:47:11.503Z,19.94
2019-05-25T10:49:41.023Z,19.88
2019-05-25T10:52:10.544Z,20.27
2019-05-25T10:54:40.622Z,20.09
2019-05-25T10:57:13.116Z,20.46
2019-05-25T10:59:52.367Z,20.64
2019-05-25T11:02:12.705Z,20.86
2019-05-25T11:04:42.645Z,20.78
2019-05-25T11:07:12.150Z,20.07
2019-05-25T11:09:42.018Z,20.12
2019-05-25T11:12:11.708Z,20.79
2019-05-25T11:14:41.222Z,21.09
2019-05-25T11:17:10.879Z,20.67
2019-05-25T11:19:40.605Z,20.39
2019-05-25T11:22:12.487Z,21.12
2019-05-25T11:24:42.138Z,21.03
2019-05-25T11:27:11.808Z,21.48
2019-05-25T11:29:41.344Z,20.53
2019-05-25T11:32:11.258Z,21.07
2019-05-25T11:34:40.782Z,21.43
2019-05-25T11:37:10.952Z,21.79
2019-05-25T11:39:40.573Z,21.71
2019-05-25T11:42:10.212Z,21.89
2019-05-25T11:44:42.853Z,20.81
2019-05-25T11:47:13.105Z,20.50
2019-05-25T11:49:42.692Z,20.55
2019-05-25T11:52:12.375Z,20.71
2019-05-25T11:54:42.048Z,20.94
2019-05-25T11:57:11.698Z,20.85
2019-05-25T11:59:41.355Z,21.04
2019-05-25T12:02:11.075Z,21.37
2019-05-25T12:04:42.000Z,21.38
2019-05-25T12:07:12.127Z,21.20
2019-05-25T12:09:42.340Z,20.91
2019-05-25T12:12:12.074Z,19.67
2019-05-25T12:14:41.590Z,19.38
2019-05-25T12:17:11.325Z,18.79
2019-05-25T12:19:41.246Z,19.26
2019-05-25T12:22:10.906Z,19.19
2019-05-25T12:24:40.740Z,19.19
2019-05-25T12:27:10.405Z,19.37
2019-05-25T12:29:40.066Z,19.63
2019-05-25T12:32:09.850Z,19.75
2019-05-25T12:34:58.847Z,20.06
2019-05-25T12:37:28.508Z,20.05
2019-05-25T12:39:58.081Z,19.97
2019-05-25T12:42:27.684Z,20.41
2019-05-25T12:44:57.377Z,20.27
2019-05-25T12:47:27.039Z,20.23
2019-05-25T12:49:56.636Z,20.36
2019-05-25T12:52:26.547Z,20.00
2019-05-25T12:54:56.208Z,20.32
2019-05-25T12:57:26.080Z,20.50
2019-05-25T12:59:55.706Z,20.64
2019-05-25T13:02:25.285Z,20.99
2019-05-25T13:04:54.805Z,21.12
2019-05-25T13:07:24.438Z,21.15
2019-05-25T13:09:55.803Z,21.27
2019-05-25T13:12:25.519Z,21.35
2019-05-25T13:14:55.802Z,20.87
2019-05-25T13:17:25.346Z,20.78
2019-05-25T13:19:55.004Z,20.51
2019-05-25T13:22:24.581Z,20.73
2019-05-25T13:24:54.189Z,20.70
2019-05-25T13:27:23.855Z,20.80
2019-05-25T13:29:53.581Z,20.80
2019-05-25T13:32:23.171Z,20.56
2019-05-25T13:34:52.851Z,20.40
2019-05-25T13:37:22.815Z,20.89
2019-05-25T13:39:55.468Z,20.87
2019-05-25T13:42:25.140Z,21.34
2019-05-25T13:44:54.800Z,21.22
2019-05-25T13:47:24.459Z,20.86
2019-05-25T13:49:54.244Z,21.22
2019-05-25T13:52:24.309Z,20.91
2019-05-25T13:54:53.933Z,20.83
2019-05-25T13:57:23.736Z,20.55
2019-05-25T13:59:53.578Z,20.60
2019-05-25T14:02:23.442Z,20.46
2019-05-25T14:04:53.798Z,20.58
2019-05-25T14:07:23.433Z,20.68
2019-05-25T14:09:53.144Z,20.71
2019-05-25T14:12:23.510Z,20.84
2019-05-25T14:14:53.638Z,21.38
2019-05-25T14:17:23.393Z,21.48
2019-05-25T14:19:53.061Z,21.00
2019-05-25T14:22:22.768Z,21.21
2019-05-25T14:24:52.402Z,21.23
2019-05-25T14:27:22.209Z,21.37
2019-05-25T14:29:52.007Z,20.66
2019-05-25T14:32:21.747Z,20.41
2019-05-25T14:34:51.469Z,20.30
2019-05-25T14:37:21.373Z,20.46
2019-05-25T14:39:51.038Z,20.48
2019-05-25T14:42:20.804Z,20.55
2019-05-25T14:44:50.542Z,20.60
2019-05-25T14:47:21.465Z,20.29
2019-05-25T14:49:51.109Z,20.19
2019-05-25T14:52:20.836Z,20.36
2019-05-25T14:54:50.427Z,20.25
2019-05-25T14:57:20.369Z,20.19
2019-05-25T14:59:50.087Z,20.58
2019-05-25T15:02:19.741Z,20.43
2019-05-25T15:04:49.476Z,20.16
2019-05-25T15:07:19.331Z,20.17
2019-05-25T15:09:49.029Z,20.20
2019-05-25T15:12:20.468Z,20.19
2019-05-25T15:14:52.500Z,20.32
2019-05-25T15:17:22.137Z,19.73
2019-05-25T15:19:51.874Z,19.52
2019-05-25T15:22:21.492Z,19.25
2019-05-25T15:24:51.220Z,19.11
2019-05-25T15:27:20.997Z,19.02
2019-05-25T15:29:55.228Z,19.05
2019-05-25T15:32:28.000Z,19.25
2019-05-25T15:34:57.891Z,19.38
2019-05-25T15:37:27.534Z,19.64
2019-05-25T15:39:57.211Z,19.73
2019-05-25T15:42:26.876Z,19.52
2019-05-25T15:44:56.484Z,19.18
2019-05-25T15:47:45.663Z,19.29
2019-05-25T15:50:17.169Z,19.33
2019-05-25T15:52:46.820Z,19.25
2019-05-25T15:55:17.197Z,19.10
2019-05-25T15:57:46.776Z,19.19
2019-05-25T16:00:17.336Z,19.17
2019-05-25T16:02:47.214Z,19.01
2019-05-25T16:05:18.071Z,19.09
2019-05-25T16:07:51.505Z,19.01
2019-05-25T16:10:24.571Z,19.29
2019-05-25T16:12:53.869Z,19.30
2019-05-25T16:15:29.687Z,19.12
2019-05-25T16:17:59.528Z,18.95
2019-05-25T16:20:29.169Z,19.12
2019-05-25T16:22:58.729Z,19.30
2019-05-25T16:25:28.558Z,19.46
2019-05-25T16:27:58.064Z,19.42
2019-05-25T16:30:31.341Z,19.35
2019-05-25T16:35:31.682Z,19.47
2019-05-25T16:38:01.779Z,19.54
2019-05-25T16:38:21.036Z,19.42
2019-05-25T16:40:31.605Z,19.59
2019-05-25T16:43:01.943Z,19.59
2019-05-25T16:45:32.382Z,19.23
2019-05-25T16:48:01.910Z,19.36
2019-05-25T16:50:31.637Z,19.28
2019-05-25T16:53:02.822Z,19.28
2019-05-25T16:55:34.041Z,19.09
2019-05-25T16:58:03.623Z,18.78
2019-05-25T17:00:36.545Z,18.44
2019-05-25T17:03:06.205Z,18.77
2019-05-25T17:05:37.649Z,18.94
2019-05-25T17:08:07.307Z,19.10
2019-05-25T17:10:36.888Z,19.07
2019-05-25T17:13:06.576Z,18.91
2019-05-25T17:15:39.792Z,19.02
2019-05-25T17:18:09.446Z,19.01
2019-05-25T17:20:39.251Z,18.67
2019-05-25T17:23:08.912Z,18.48
2019-05-25T17:25:38.479Z,18.57
2019-05-25T17:28:08.220Z,18.65
2019-05-25T17:30:48.788Z,18.61
2019-05-25T17:33:18.391Z,18.74
2019-05-25T17:35:48.140Z,18.71
2019-05-25T17:38:17.821Z,18.56
2019-05-25T17:40:47.759Z,18.71
2019-05-25T17:43:17.433Z,18.73
2019-05-25T17:45:47.154Z,18.71
2019-05-25T17:48:18.438Z,18.77
2019-05-25T17:50:48.332Z,18.35
2019-05-25T17:53:17.935Z,18.69
2019-05-25T17:55:47.588Z,18.71
2019-05-25T17:58:17.895Z,18.62
2019-05-25T18:00:49.770Z,18.64
2019-05-25T18:03:19.598Z,18.39
2019-05-25T18:05:51.363Z,18.42
2019-05-25T18:08:21.784Z,18.43
2019-05-25T18:10:54.014Z,18.23
2019-05-25T18:13:24.322Z,18.48
2019-05-25T18:15:53.916Z,18.43
2019-05-25T18:18:23.748Z,18.38
2019-05-25T18:20:53.779Z,18.42
2019-05-25T18:23:23.438Z,18.20
2019-05-25T18:25:53.101Z,18.10
2019-05-25T18:28:23.171Z,18.17
2019-05-25T18:30:52.771Z,18.33
2019-05-25T18:33:22.688Z,18.40
2019-05-25T18:35:52.631Z,18.35
2019-05-25T18:38:22.387Z,18.29
2019-05-25T18:40:52.018Z,18.32
2019-05-25T18:43:22.294Z,18.31
2019-05-25T18:45:51.835Z,18.24
2019-05-25T18:48:21.438Z,18.39
2019-05-25T18:50:51.289Z,18.28
2019-05-25T18:53:20.888Z,18.23
2019-05-25T18:55:50.455Z,18.08
2019-05-25T18:58:20.094Z,18.17
2019-05-25T19:00:49.838Z,18.01
2019-05-25T19:03:19.385Z,17.86
2019-05-25T19:05:49.540Z,17.69
2019-05-25T19:08:19.325Z,17.82
2019-05-25T19:10:49.069Z,17.56
2019-05-25T19:13:18.873Z,17.58
2019-05-25T19:15:48.587Z,17.62
2019-05-25T19:18:19.784Z,17.52
2019-05-25T19:20:49.422Z,17.58
2019-05-25T19:23:19.018Z,17.40
2019-05-25T19:25:48.642Z,17.27
2019-05-25T19:28:20.716Z,17.40
2019-05-25T19:30:50.504Z,17.24
2019-05-25T19:33:20.112Z,17.40
2019-05-25T19:35:49.953Z,17.35
2019-05-25T19:38:19.593Z,17.42
2019-05-25T19:40:52.285Z,17.41
2019-05-25T19:43:23.696Z,17.26
2019-05-25T19:45:53.590Z,17.20
2019-05-25T19:48:23.200Z,17.14
2019-05-25T19:50:56.429Z,17.11
2019-05-25T19:53:26.337Z,17.01
2019-05-25T19:55:55.914Z,16.92
2019-05-25T19:58:27.001Z,16.94
2019-05-25T20:00:56.782Z,16.92
2019-05-25T20:03:26.406Z,16.88
2019-05-25T20:05:59.169Z,17.04
2019-05-25T20:08:29.140Z,16.65
2019-05-25T20:11:01.113Z,16.73
2019-05-25T20:13:33.527Z,16.78
2019-05-25T20:16:04.023Z,16.75
2019-05-25T20:18:33.718Z,16.66
2019-05-25T20:21:03.484Z,16.58
2019-05-25T20:23:52.437Z,16.51
2019-05-25T20:26:22.053Z,16.66
2019-05-25T20:28:51.655Z,16.59
2019-05-25T20:31:21.175Z,16.42
2019-05-25T20:33:52.891Z,16.19
2019-05-25T20:36:22.553Z,16.01
2019-05-25T20:38:52.177Z,16.06
2019-05-25T20:41:23.352Z,15.66
2019-05-25T20:43:53.020Z,15.72
2019-05-25T20:46:22.635Z,15.40
2019-05-25T20:48:52.842Z,15.45
2019-05-25T20:51:22.386Z,15.56
2019-05-25T20:53:51.976Z,15.73
2019-05-25T20:56:21.645Z,15.71
2019-05-25T20:58:51.225Z,15.64
2019-05-25T21:01:20.798Z,15.59
2019-05-25T21:03:50.423Z,15.78
2019-05-25T21:06:20.085Z,15.67
2019-05-25T21:08:49.697Z,15.75
2019-05-25T21:11:19.860Z,15.76
2019-05-25T21:13:49.891Z,15.69
2019-05-25T21:16:19.629Z,15.49
2019-05-25T21:18:50.592Z,15.65
2019-05-25T21:21:20.199Z,15.43
2019-05-25T21:23:49.777Z,15.17
2019-05-25T21:26:19.383Z,15.12
2019-05-25T21:28:49.364Z,15.13
2019-05-25T21:31:19.246Z,15.13
2019-05-25T21:33:50.108Z,15.11
2019-05-25T21:36:22.894Z,15.25
2019-05-25T21:38:52.510Z,15.15
2019-05-25T21:41:22.287Z,15.10
2019-05-25T21:43:52.133Z,15.09
2019-05-25T21:46:22.297Z,14.92
2019-05-25T21:48:54.790Z,14.79
2019-05-25T21:51:24.610Z,14.73
2019-05-25T21:53:54.124Z,14.74
2019-05-25T21:56:23.787Z,14.58
2019-05-25T21:58:53.401Z,14.75
2019-05-25T22:01:23.569Z,14.63
2019-05-25T22:03:53.246Z,14.46
2019-05-25T22:06:24.570Z,14.42
2019-05-25T22:08:54.245Z,14.40
2019-05-25T22:11:24.063Z,14.48
2019-05-25T22:13:55.414Z,14.31
2019-05-25T22:16:26.802Z,14.34
2019-05-25T22:18:56.456Z,14.14
2019-05-25T22:21:27.234Z,14.09
2019-05-25T22:23:56.841Z,13.90
2019-05-25T22:26:28.526Z,14.07
2019-05-25T22:28:58.139Z,14.00
2019-05-25T22:31:27.742Z,14.08
2019-05-25T22:33:59.374Z,14.17
2019-05-25T22:36:40.429Z,13.79
2019-05-25T22:39:08.730Z,13.87
2019-05-25T22:41:38.429Z,13.81
2019-05-25T22:44:08.222Z,13.79
2019-05-25T22:46:37.903Z,13.75
2019-05-25T22:49:07.453Z,13.76
2019-05-25T22:51:36.966Z,13.56
2019-05-25T22:54:06.665Z,13.47
2019-05-25T22:56:36.258Z,13.43
2019-05-25T22:59:05.832Z,13.38
2019-05-25T23:01:35.474Z,13.09
2019-05-25T23:04:05.060Z,13.14
2019-05-25T23:06:34.716Z,13.16
2019-05-25T23:09:07.210Z,13.13
2019-05-25T23:11:36.826Z,13.22
2019-05-25T23:14:09.690Z,13.24
2019-05-25T23:16:37.893Z,13.25
2019-05-25T23:19:07.466Z,13.41
2019-05-25T23:21:37.064Z,13.33
2019-05-25T23:24:06.707Z,13.42
2019-05-25T23:26:36.295Z,13.49
2019-05-25T23:29:05.960Z,13.28
2019-05-25T23:31:35.972Z,13.24
2019-05-25T23:34:05.625Z,13.19
2019-05-25T23:36:35.211Z,13.04
2019-05-25T23:39:06.433Z,13.09
2019-05-25T23:41:36.510Z,12.94
2019-05-25T23:44:06.089Z,12.93
2019-05-25T23:46:35.739Z,13.18
2019-05-25T23:49:05.315Z,13.21
2019-05-25T23:51:34.904Z,13.33
2019-05-25T23:54:04.740Z,13.37
2019-05-25T23:56:35.916Z,13.20
2019-05-25T23:59:05.429Z,13.13
